Terminal Aerodrome Forecast
Issued by NWS

Home | Current Version | Previous Version | Text Only | Print | Product List | Glossary On
Versions: 1 2 3 4 5 6 7 8 9 10 11 12
398
FTUS45 KPIH 232338
TAFSUN
TAF
KSUN 232338Z 2400/2506 20011KT P6SM FEW110
     FM240400 32010KT P6SM SKC
     FM241600 13008KT P6SM SCT110 BKN200
     FM241900 16009KT P6SM VCTS SCT100CB BKN200
      AMD LTD TO CLD VIS AND WIND 2405/2413=

USA.gov is the U.S. government's official web portal to all federal, state and local government web resources and services.